UWWWUWLW

Guest
Details From UWWW - KURUMOCH
To UWLW - VOSTOCHNY
Flight Number -
Tags generated
Created
Modified
Stats Distance 72 nm / 134 km
Max Altitude 0 ft / 0 m
Waypoints 2
Social Downloads 0
Likes 0
Share VATSIM

Download

Looking for another format? Having issues loading an existing format? Contact us
Advertisement - Login to hide

Notes

Basic altitude profile: - Ascent Rate: 2500ft/min - Ascent Speed: 250kts - Cruise Altitude: 35000ft - Cruise Speed: 420kts - Descent Rate: 1500ft/min - Descent Speed: 250kts Options: - Use NATs: yes - Use PACOTS: yes - Use low airways: yes - Use high airways: yes

Route

UWWW UWLW

ID Type Via Altitude Latitude Longitude Leg Dist Tot Dist Heading (true) Name
O UWWW APT - 0 ft / 0 m 53.50490˚ 50.16443˚ - 0 nm - KURUMOCH
O UWLW APT - 0 ft / 0 m 54.40101˚ 48.80266˚ 72 nm 72 nm 319° / 318° VOSTOCHNY

Altitude Profile

Advertisement - Login to hide

UWWW

Details ICAO UWWW (KBY)
Name KURUMOCH
Region Russia
Timezone Europe/Samara (UTC+4.0)
Stats Elevation 477 ft / 145 m (AMSL)
Location 53.504905° 50.164434°
Runways 2
Magnetic Variation 12.136° E

METAR

UWWW 161700Z 14006MPS CAVOK M10/M13 Q1033 R23/450342 NOSIG RMK QFE764/1018

Decode

TAF

TAF UWWW 161355Z 1615/1715 15006G12MPS 9999 BKN011 OVC100 TXM09/1711Z TNM12/1703Z TEMPO 1615/1715 17008G14MPS 3100 -SN OVC007

Decode

Departure Runways

ID Width Length Bearing (true) Bearing (mag) Surface Threshold Offset Overrun Length
05 197 ft / 60 m 8,483 ft / 2,586 m 61.70° 49.56° Asphalt 0 ft / 0 m 75 ft / 23 m
15 148 ft / 45 m 9,845 ft / 3,001 m 160.00° 147.86° Concrete 0 ft / 0 m 175 ft / 53 m
23 197 ft / 60 m 8,483 ft / 2,586 m 241.73° 229.59° Asphalt 0 ft / 0 m 180 ft / 55 m
33 148 ft / 45 m 9,845 ft / 3,001 m 340.01° 327.87° Concrete 0 ft / 0 m 175 ft / 53 m

UWLW

Details ICAO UWLW (ULY)
Name VOSTOCHNY
Region Russia
Timezone Europe/Moscow (UTC+3.0)
Stats Elevation 252 ft / 77 m (AMSL)
Location 54.401014° 48.802664°
Runways 1
Magnetic Variation 12.502° E

METAR

UWLW 161700Z 17007MPS 8000 DRSN BKN030 M07/M10 Q1031 R20/850142 NOSIG RMK QFE767

Decode

TAF

TAF UWLW 161345Z 1615/1715 15006G13MPS 5000 -SN BLSN OVC015 TEMPO 1615/1715 18008G16MPS 1000 SN BLSN OVC004

Decode

Destination Runways

ID Width Length Bearing (true) Bearing (mag) Surface Threshold Offset Overrun Length
02 344 ft / 105 m 16,466 ft / 5,019 m 31.42° 18.92° Concrete 0 ft / 0 m 264 ft / 80 m
20 344 ft / 105 m 16,466 ft / 5,019 m 211.45° 198.95° Concrete 0 ft / 0 m 248 ft / 76 m

Approach Navaids

Runway Type Ident Frequency Range Bearing (true) Bearing (mag) Slope Elevation
02 Localiser IUL 110.10 MHz 18 nm / 33 km 31.62° 19.12° - 252 ft / 77 m (AMSL)
02 Glidescope IUL 110.10 MHz 10 nm / 19 km 31.44° 18.93° 2.70° 252 ft / 77 m (AMSL)
20 Localiser IWN 110.10 MHz 18 nm / 33 km 209.79° 197.29° - 252 ft / 77 m (AMSL)
20 Glidescope IWN 110.10 MHz 10 nm / 19 km 211.44° 198.93° 2.70° 252 ft / 77 m (AMSL)